sensor_id;sensor_type;location;lat;lon;timestamp;temperature;humidity
34153;DHT22;20426;48.372;10.888;2023-02-08T00:00:25;-2.40;96.60
34153;DHT22;20426;48.372;10.888;2023-02-08T00:00:56;-2.40;96.70
34153;DHT22;20426;48.372;10.888;2023-02-08T00:01:27;-2.40;96.70
34153;DHT22;20426;48.372;10.888;2023-02-08T00:01:57;-2.50;96.70
34153;DHT22;20426;48.372;10.888;2023-02-08T00:02:28;-2.50;96.70
34153;DHT22;20426;48.372;10.888;2023-02-08T00:02:59;-2.40;96.80
34153;DHT22;20426;48.372;10.888;2023-02-08T00:03:29;-2.50;96.90
34153;DHT22;20426;48.372;10.888;2023-02-08T00:04:00;-2.50;96.90
34153;DHT22;20426;48.372;10.888;2023-02-08T00:04:31;-2.50;96.90
34153;DHT22;20426;48.372;10.888;2023-02-08T00:05:01;-2.40;97.00
34153;DHT22;20426;48.372;10.888;2023-02-08T00:05:32;-2.40;97.10
34153;DHT22;20426;48.372;10.888;2023-02-08T00:06:04;-2.40;97.20
34153;DHT22;20426;48.372;10.888;2023-02-08T00:06:35;-2.50;97.20
34153;DHT22;20426;48.372;10.888;2023-02-08T00:07:06;-2.50;97.50
34153;DHT22;20426;48.372;10.888;2023-02-08T00:07:36;-2.50;97.10
34153;DHT22;20426;48.372;10.888;2023-02-08T00:08:08;-2.50;96.90
34153;DHT22;20426;48.372;10.888;2023-02-08T00:08:39;-2.40;96.90
34153;DHT22;20426;48.372;10.888;2023-02-08T00:09:10;-2.40;96.90
34153;DHT22;20426;48.372;10.888;2023-02-08T00:09:41;-2.40;96.80
34153;DHT22;20426;48.372;10.888;2023-02-08T00:10:11;-2.50;96.90
34153;DHT22;20426;48.372;10.888;2023-02-08T00:10:42;-2.50;97.00
34153;DHT22;20426;48.372;10.888;2023-02-08T00:11:13;-2.50;97.10
34153;DHT22;20426;48.372;10.888;2023-02-08T00:11:44;-2.50;97.20
34153;DHT22;20426;48.372;10.888;2023-02-08T00:12:14;-2.50;97.30
34153;DHT22;20426;48.372;10.888;2023-02-08T00:12:45;-2.50;97.40
34153;DHT22;20426;48.372;10.888;2023-02-08T00:13:16;-2.50;97.50
34153;DHT22;20426;48.372;10.888;2023-02-08T00:13:46;-2.50;97.40
34153;DHT22;20426;48.372;10.888;2023-02-08T00:14:17;-2.50;97.30
34153;DHT22;20426;48.372;10.888;2023-02-08T00:14:48;-2.50;97.20
34153;DHT22;20426;48.372;10.888;2023-02-08T00:15:18;-2.50;97.20
34153;DHT22;20426;48.372;10.888;2023-02-08T00:15:51;-2.50;97.10
34153;DHT22;20426;48.372;10.888;2023-02-08T00:16:22;-2.50;97.20
34153;DHT22;20426;48.372;10.888;2023-02-08T00:16:53;-2.50;97.30
34153;DHT22;20426;48.372;10.888;2023-02-08T00:17:24;-2.50;97.40
34153;DHT22;20426;48.372;10.888;2023-02-08T00:17:54;-2.50;97.50
34153;DHT22;20426;48.372;10.888;2023-02-08T00:18:25;-2.50;97.50
34153;DHT22;20426;48.372;10.888;2023-02-08T00:18:56;-2.50;97.50
34153;DHT22;20426;48.372;10.888;2023-02-08T00:19:26;-2.50;97.40
34153;DHT22;20426;48.372;10.888;2023-02-08T00:19:57;-2.40;97.40
34153;DHT22;20426;48.372;10.888;2023-02-08T00:20:28;-2.50;97.30
34153;DHT22;20426;48.372;10.888;2023-02-08T00:20:58;-2.50;97.20
34153;DHT22;20426;48.372;10.888;2023-02-08T00:21:29;-2.50;97.10
34153;DHT22;20426;48.372;10.888;2023-02-08T00:22:00;-2.50;96.90
34153;DHT22;20426;48.372;10.888;2023-02-08T00:22:31;-2.50;96.80
34153;DHT22;20426;48.372;10.888;2023-02-08T00:23:01;-2.60;96.90
34153;DHT22;20426;48.372;10.888;2023-02-08T00:23:32;-2.50;96.90
34153;DHT22;20426;48.372;10.888;2023-02-08T00:24:03;-2.60;97.00
34153;DHT22;20426;48.372;10.888;2023-02-08T00:24:34;-2.60;97.30
34153;DHT22;20426;48.372;10.888;2023-02-08T00:25:06;-2.60;97.30
34153;DHT22;20426;48.372;10.888;2023-02-08T00:25:37;-2.60;97.40
34153;DHT22;20426;48.372;10.888;2023-02-08T00:26:09;-2.60;97.50
34153;DHT22;20426;48.372;10.888;2023-02-08T00:26:39;-2.60;97.60
34153;DHT22;20426;48.372;10.888;2023-02-08T00:27:10;-2.60;97.60
34153;DHT22;20426;48.372;10.888;2023-02-08T00:27:41;-2.60;97.70
34153;DHT22;20426;48.372;10.888;2023-02-08T00:28:13;-2.50;97.70
34153;DHT22;20426;48.372;10.888;2023-02-08T00:28:44;-2.50;97.70
34153;DHT22;20426;48.372;10.888;2023-02-08T00:29:15;-2.50;97.70
34153;DHT22;20426;48.372;10.888;2023-02-08T00:29:46;-2.50;97.80
34153;DHT22;20426;48.372;10.888;2023-02-08T00:30:16;-2.50;97.80
34153;DHT22;20426;48.372;10.888;2023-02-08T00:30:47;-2.50;97.90
34153;DHT22;20426;48.372;10.888;2023-02-08T00:31:18;-2.50;97.90
34153;DHT22;20426;48.372;10.888;2023-02-08T00:31:49;-2.50;97.90
34153;DHT22;20426;48.372;10.888;2023-02-08T00:32:19;-2.50;97.90
34153;DHT22;20426;48.372;10.888;2023-02-08T00:32:50;-2.50;97.80
34153;DHT22;20426;48.372;10.888;2023-02-08T00:33:21;-2.50;97.80
34153;DHT22;20426;48.372;10.888;2023-02-08T00:33:51;-2.50;97.80
34153;DHT22;20426;48.372;10.888;2023-02-08T00:34:22;-2.50;97.80
34153;DHT22;20426;48.372;10.888;2023-02-08T00:34:53;-2.50;97.80
34153;DHT22;20426;48.372;10.888;2023-02-08T00:35:24;-2.50;97.80
34153;DHT22;20426;48.372;10.888;2023-02-08T00:36:02;-2.50;97.80
34153;DHT22;20426;48.372;10.888;2023-02-08T00:36:33;-2.50;97.90
34153;DHT22;20426;48.372;10.888;2023-02-08T00:37:05;-2.50;97.90
34153;DHT22;20426;48.372;10.888;2023-02-08T00:37:36;-2.60;97.90
34153;DHT22;20426;48.372;10.888;2023-02-08T00:38:06;-2.50;97.90
34153;DHT22;20426;48.372;10.888;2023-02-08T00:38:37;-2.60;98.00
34153;DHT22;20426;48.372;10.888;2023-02-08T00:39:08;-2.60;98.10
34153;DHT22;20426;48.372;10.888;2023-02-08T00:39:39;-2.60;98.10
34153;DHT22;20426;48.372;10.888;2023-02-08T00:40:10;-2.60;98.00
34153;DHT22;20426;48.372;10.888;2023-02-08T00:40:41;-2.60;98.10
34153;DHT22;20426;48.372;10.888;2023-02-08T00:41:11;-2.60;98.10
34153;DHT22;20426;48.372;10.888;2023-02-08T00:41:42;-2.60;98.00
34153;DHT22;20426;48.372;10.888;2023-02-08T00:42:13;-2.60;98.00
34153;DHT22;20426;48.372;10.888;2023-02-08T00:42:44;-2.60;98.00
34153;DHT22;20426;48.372;10.888;2023-02-08T00:43:14;-2.60;98.00
34153;DHT22;20426;48.372;10.888;2023-02-08T00:43:45;-2.60;98.10
34153;DHT22;20426;48.372;10.888;2023-02-08T00:44:16;-2.60;98.10
34153;DHT22;20426;48.372;10.888;2023-02-08T00:44:46;-2.60;98.10
34153;DHT22;20426;48.372;10.888;2023-02-08T00:45:17;-2.60;98.20
34153;DHT22;20426;48.372;10.888;2023-02-08T00:45:53;-2.60;98.00
34153;DHT22;20426;48.372;10.888;2023-02-08T00:46:24;-2.60;98.10
34153;DHT22;20426;48.372;10.888;2023-02-08T00:46:55;-2.60;98.50
34153;DHT22;20426;48.372;10.888;2023-02-08T00:47:27;-2.60;98.20
34153;DHT22;20426;48.372;10.888;2023-02-08T00:47:58;-2.60;98.20
34153;DHT22;20426;48.372;10.888;2023-02-08T00:48:29;-2.60;98.30
34153;DHT22;20426;48.372;10.888;2023-02-08T00:49:01;-2.60;98.30
34153;DHT22;20426;48.372;10.888;2023-02-08T00:49:31;-2.60;98.40
34153;DHT22;20426;48.372;10.888;2023-02-08T00:50:03;-2.60;98.40
34153;DHT22;20426;48.372;10.888;2023-02-08T00:50:34;-2.60;98.40
34153;DHT22;20426;48.372;10.888;2023-02-08T00:51:07;-2.70;98.40
34153;DHT22;20426;48.372;10.888;2023-02-08T00:51:39;-2.70;98.40
34153;DHT22;20426;48.372;10.888;2023-02-08T00:52:09;-2.70;98.50
34153;DHT22;20426;48.372;10.888;2023-02-08T00:52:40;-2.70;98.50
34153;DHT22;20426;48.372;10.888;2023-02-08T00:53:11;-2.70;98.50
34153;DHT22;20426;48.372;10.888;2023-02-08T00:53:43;-2.70;98.40
34153;DHT22;20426;48.372;10.888;2023-02-08T00:54:16;-2.70;98.40
34153;DHT22;20426;48.372;10.888;2023-02-08T00:54:47;-2.70;98.30
34153;DHT22;20426;48.372;10.888;2023-02-08T00:55:18;-2.70;98.40
34153;DHT22;20426;48.372;10.888;2023-02-08T00:55:52;-2.70;98.30
34153;DHT22;20426;48.372;10.888;2023-02-08T00:56:23;-2.70;98.40
34153;DHT22;20426;48.372;10.888;2023-02-08T00:56:54;-2.70;98.40
34153;DHT22;20426;48.372;10.888;2023-02-08T00:57:25;-2.70;98.40
34153;DHT22;20426;48.372;10.888;2023-02-08T00:57:55;-2.70;98.40
34153;DHT22;20426;48.372;10.888;2023-02-08T00:58:26;-2.70;98.40
34153;DHT22;20426;48.372;10.888;2023-02-08T00:58:57;-2.70;98.40
34153;DHT22;20426;48.372;10.888;2023-02-08T00:59:27;-2.70;98.20
34153;DHT22;20426;48.372;10.888;2023-02-08T00:59:58;-2.70;98.30
34153;DHT22;20426;48.372;10.888;2023-02-08T01:00:29;-2.70;98.40
34153;DHT22;20426;48.372;10.888;2023-02-08T01:01:00;-2.80;98.50
34153;DHT22;20426;48.372;10.888;2023-02-08T01:01:31;-2.80;98.50
34153;DHT22;20426;48.372;10.888;2023-02-08T01:02:02;-2.80;98.50
34153;DHT22;20426;48.372;10.888;2023-02-08T01:02:32;-2.80;98.60
34153;DHT22;20426;48.372;10.888;2023-02-08T01:03:03;-2.80;98.50
34153;DHT22;20426;48.372;10.888;2023-02-08T01:03:36;-2.80;98.60
34153;DHT22;20426;48.372;10.888;2023-02-08T01:04:07;-2.80;98.60
34153;DHT22;20426;48.372;10.888;2023-02-08T01:04:38;-2.80;98.50
34153;DHT22;20426;48.372;10.888;2023-02-08T01:05:09;-2.80;98.50
34153;DHT22;20426;48.372;10.888;2023-02-08T01:05:40;-2.80;98.50
34153;DHT22;20426;48.372;10.888;2023-02-08T01:06:14;-2.80;98.50
34153;DHT22;20426;48.372;10.888;2023-02-08T01:06:45;-2.80;98.60
34153;DHT22;20426;48.372;10.888;2023-02-08T01:07:16;-2.80;98.50
34153;DHT22;20426;48.372;10.888;2023-02-08T01:07:46;-2.80;98.50
34153;DHT22;20426;48.372;10.888;2023-02-08T01:08:18;-2.80;98.50
34153;DHT22;20426;48.372;10.888;2023-02-08T01:08:52;-2.80;98.50
34153;DHT22;20426;48.372;10.888;2023-02-08T01:09:23;-2.80;98.50
34153;DHT22;20426;48.372;10.888;2023-02-08T01:09:53;-2.80;98.60
34153;DHT22;20426;48.372;10.888;2023-02-08T01:10:24;-2.80;98.50
34153;DHT22;20426;48.372;10.888;2023-02-08T01:11:07;-2.80;98.50
34153;DHT22;20426;48.372;10.888;2023-02-08T01:11:38;-2.80;98.60
34153;DHT22;20426;48.372;10.888;2023-02-08T01:12:09;-2.80;98.70
34153;DHT22;20426;48.372;10.888;2023-02-08T01:12:40;-2.80;98.70
34153;DHT22;20426;48.372;10.888;2023-02-08T01:13:11;-2.80;98.80
34153;DHT22;20426;48.372;10.888;2023-02-08T01:13:41;-2.80;98.80
34153;DHT22;20426;48.372;10.888;2023-02-08T01:14:12;-2.80;98.70
34153;DHT22;20426;48.372;10.888;2023-02-08T01:14:43;-2.80;98.80
34153;DHT22;20426;48.372;10.888;2023-02-08T01:15:14;-2.80;98.80
34153;DHT22;20426;48.372;10.888;2023-02-08T01:15:44;-2.80;98.90
34153;DHT22;20426;48.372;10.888;2023-02-08T01:16:18;-2.80;98.70
34153;DHT22;20426;48.372;10.888;2023-02-08T01:16:49;-2.80;98.90
34153;DHT22;20426;48.372;10.888;2023-02-08T01:17:19;-2.80;98.70
34153;DHT22;20426;48.372;10.888;2023-02-08T01:17:54;-2.90;98.70
34153;DHT22;20426;48.372;10.888;2023-02-08T01:18:25;-2.90;98.70
34153;DHT22;20426;48.372;10.888;2023-02-08T01:18:57;-2.90;98.70
34153;DHT22;20426;48.372;10.888;2023-02-08T01:19:27;-2.90;98.80
34153;DHT22;20426;48.372;10.888;2023-02-08T01:19:58;-2.90;98.80
34153;DHT22;20426;48.372;10.888;2023-02-08T01:20:29;-2.90;98.90
34153;DHT22;20426;48.372;10.888;2023-02-08T01:21:11;-2.90;99.00
34153;DHT22;20426;48.372;10.888;2023-02-08T01:21:42;-2.90;99.00
34153;DHT22;20426;48.372;10.888;2023-02-08T01:22:13;-2.90;99.30
34153;DHT22;20426;48.372;10.888;2023-02-08T01:22:44;-2.90;99.10
34153;DHT22;20426;48.372;10.888;2023-02-08T01:23:15;-2.90;99.10
34153;DHT22;20426;48.372;10.888;2023-02-08T01:23:46;-2.90;99.10
34153;DHT22;20426;48.372;10.888;2023-02-08T01:24:16;-2.90;99.10
34153;DHT22;20426;48.372;10.888;2023-02-08T01:24:47;-2.90;99.10
34153;DHT22;20426;48.372;10.888;2023-02-08T01:25:18;-2.90;99.00
34153;DHT22;20426;48.372;10.888;2023-02-08T01:25:48;-2.90;99.00
34153;DHT22;20426;48.372;10.888;2023-02-08T01:26:20;-2.90;99.00
34153;DHT22;20426;48.372;10.888;2023-02-08T01:26:51;-2.90;99.00
34153;DHT22;20426;48.372;10.888;2023-02-08T01:27:21;-2.90;99.00
34153;DHT22;20426;48.372;10.888;2023-02-08T01:27:52;-2.90;99.00
34153;DHT22;20426;48.372;10.888;2023-02-08T01:28:26;-2.90;99.10
34153;DHT22;20426;48.372;10.888;2023-02-08T01:28:57;-2.90;99.10
34153;DHT22;20426;48.372;10.888;2023-02-08T01:29:29;-2.90;99.10
34153;DHT22;20426;48.372;10.888;2023-02-08T01:29:59;-2.90;99.00
34153;DHT22;20426;48.372;10.888;2023-02-08T01:30:30;-2.90;99.00
34153;DHT22;20426;48.372;10.888;2023-02-08T01:31:06;-2.90;99.00
34153;DHT22;20426;48.372;10.888;2023-02-08T01:31:38;-2.90;99.00
34153;DHT22;20426;48.372;10.888;2023-02-08T01:32:10;-3.00;99.00
34153;DHT22;20426;48.372;10.888;2023-02-08T01:32:40;-3.00;99.00
34153;DHT22;20426;48.372;10.888;2023-02-08T01:33:11;-2.90;99.10
34153;DHT22;20426;48.372;10.888;2023-02-08T01:33:42;-3.00;99.30
34153;DHT22;20426;48.372;10.888;2023-02-08T01:34:12;-3.00;99.10
34153;DHT22;20426;48.372;10.888;2023-02-08T01:34:43;-3.00;99.00
34153;DHT22;20426;48.372;10.888;2023-02-08T01:35:14;-3.00;99.00
34153;DHT22;20426;48.372;10.888;2023-02-08T01:35:45;-3.00;99.20
34153;DHT22;20426;48.372;10.888;2023-02-08T01:36:16;-3.00;99.20
34153;DHT22;20426;48.372;10.888;2023-02-08T01:36:47;-3.00;99.20
34153;DHT22;20426;48.372;10.888;2023-02-08T01:37:17;-3.10;99.30
34153;DHT22;20426;48.372;10.888;2023-02-08T01:37:48;-3.00;99.30
34153;DHT22;20426;48.372;10.888;2023-02-08T01:38:19;-3.00;99.30
34153;DHT22;20426;48.372;10.888;2023-02-08T01:38:50;-3.10;99.30
34153;DHT22;20426;48.372;10.888;2023-02-08T01:39:20;-3.10;99.30
34153;DHT22;20426;48.372;10.888;2023-02-08T01:39:51;-3.10;99.30
34153;DHT22;20426;48.372;10.888;2023-02-08T01:40:22;-3.10;99.40
34153;DHT22;20426;48.372;10.888;2023-02-08T01:40:53;-3.10;99.40
34153;DHT22;20426;48.372;10.888;2023-02-08T01:41:29;-3.10;99.40
34153;DHT22;20426;48.372;10.888;2023-02-08T01:42:00;-3.10;99.50
34153;DHT22;20426;48.372;10.888;2023-02-08T01:42:31;-3.10;99.40
34153;DHT22;20426;48.372;10.888;2023-02-08T01:43:02;-3.10;99.40
34153;DHT22;20426;48.372;10.888;2023-02-08T01:44:03;-3.10;99.40
34153;DHT22;20426;48.372;10.888;2023-02-08T01:45:59;-3.20;99.30
34153;DHT22;20426;48.372;10.888;2023-02-08T01:46:31;-3.20;99.40
34153;DHT22;20426;48.372;10.888;2023-02-08T01:47:02;-3.20;99.40
34153;DHT22;20426;48.372;10.888;2023-02-08T01:47:33;-3.20;99.50
34153;DHT22;20426;48.372;10.888;2023-02-08T01:48:09;-3.20;99.50
34153;DHT22;20426;48.372;10.888;2023-02-08T01:48:41;-3.20;99.40
34153;DHT22;20426;48.372;10.888;2023-02-08T01:49:35;-3.20;99.50
34153;DHT22;20426;48.372;10.888;2023-02-08T01:50:06;-3.20;99.60
34153;DHT22;20426;48.372;10.888;2023-02-08T01:51:10;-3.20;99.60
34153;DHT22;20426;48.372;10.888;2023-02-08T01:51:41;-3.20;99.50
34153;DHT22;20426;48.372;10.888;2023-02-08T01:52:16;-3.20;99.50
34153;DHT22;20426;48.372;10.888;2023-02-08T01:52:49;-3.30;99.40
34153;DHT22;20426;48.372;10.888;2023-02-08T01:53:21;-3.30;99.40
34153;DHT22;20426;48.372;10.888;2023-02-08T01:53:52;-3.30;99.40
34153;DHT22;20426;48.372;10.888;2023-02-08T01:54:27;-3.30;99.40
34153;DHT22;20426;48.372;10.888;2023-02-08T01:55:05;-3.30;99.50
34153;DHT22;20426;48.372;10.888;2023-02-08T01:55:43;-3.30;99.60
34153;DHT22;20426;48.372;10.888;2023-02-08T01:56:19;-3.30;99.60
34153;DHT22;20426;48.372;10.888;2023-02-08T01:56:51;-3.30;99.50
34153;DHT22;20426;48.372;10.888;2023-02-08T01:57:22;-3.30;99.40
34153;DHT22;20426;48.372;10.888;2023-02-08T01:57:55;-3.30;99.30
34153;DHT22;20426;48.372;10.888;2023-02-08T01:58:29;-3.40;99.30
34153;DHT22;20426;48.372;10.888;2023-02-08T01:59:04;-3.40;99.30
34153;DHT22;20426;48.372;10.888;2023-02-08T01:59:40;-3.40;99.20
34153;DHT22;20426;48.372;10.888;2023-02-08T02:00:17;-3.40;99.20
34153;DHT22;20426;48.372;10.888;2023-02-08T02:00:50;-3.40;99.20
34153;DHT22;20426;48.372;10.888;2023-02-08T02:01:21;-3.50;99.20
34153;DHT22;20426;48.372;10.888;2023-02-08T02:01:55;-3.50;99.20
34153;DHT22;20426;48.372;10.888;2023-02-08T02:02:27;-3.50;99.20
34153;DHT22;20426;48.372;10.888;2023-02-08T02:02:58;-3.50;99.20
34153;DHT22;20426;48.372;10.888;2023-02-08T02:03:30;-3.50;99.20
34153;DHT22;20426;48.372;10.888;2023-02-08T02:04:02;-3.60;99.20
34153;DHT22;20426;48.372;10.888;2023-02-08T02:04:34;-3.60;99.30
34153;DHT22;20426;48.372;10.888;2023-02-08T02:05:05;-3.60;99.40
34153;DHT22;20426;48.372;10.888;2023-02-08T02:05:44;-3.60;99.40
34153;DHT22;20426;48.372;10.888;2023-02-08T02:06:20;-3.60;99.60
34153;DHT22;20426;48.372;10.888;2023-02-08T02:06:55;-3.60;99.70
34153;DHT22;20426;48.372;10.888;2023-02-08T02:07:28;-3.60;99.80
34153;DHT22;20426;48.372;10.888;2023-02-08T02:08:00;-3.60;99.80
34153;DHT22;20426;48.372;10.888;2023-02-08T02:08:31;-3.60;99.80
34153;DHT22;20426;48.372;10.888;2023-02-08T02:09:27;-3.50;99.90
34153;DHT22;20426;48.372;10.888;2023-02-08T02:10:11;-3.50;99.90
34153;DHT22;20426;48.372;10.888;2023-02-08T02:10:43;-3.50;99.80
34153;DHT22;20426;48.372;10.888;2023-02-08T02:11:18;-3.50;99.90
34153;DHT22;20426;48.372;10.888;2023-02-08T02:11:50;-3.50;99.90
34153;DHT22;20426;48.372;10.888;2023-02-08T02:12:23;-3.50;99.90
34153;DHT22;20426;48.372;10.888;2023-02-08T02:12:56;-3.50;99.80
34153;DHT22;20426;48.372;10.888;2023-02-08T02:13:30;-3.50;99.80
34153;DHT22;20426;48.372;10.888;2023-02-08T02:14:02;-3.50;99.90
34153;DHT22;20426;48.372;10.888;2023-02-08T02:14:35;-3.50;99.90
34153;DHT22;20426;48.372;10.888;2023-02-08T02:15:08;-3.50;99.90
34153;DHT22;20426;48.372;10.888;2023-02-08T02:15:39;-3.50;99.80
34153;DHT22;20426;48.372;10.888;2023-02-08T02:16:11;-3.50;99.80
34153;DHT22;20426;48.372;10.888;2023-02-08T02:16:42;-3.50;99.80
34153;DHT22;20426;48.372;10.888;2023-02-08T02:17:14;-3.50;99.90
34153;DHT22;20426;48.372;10.888;2023-02-08T02:17:46;-3.50;99.90
34153;DHT22;20426;48.372;10.888;2023-02-08T02:18:25;-3.50;99.90
34153;DHT22;20426;48.372;10.888;2023-02-08T02:18:56;-3.50;99.90
34153;DHT22;20426;48.372;10.888;2023-02-08T02:19:44;-3.50;99.90
34153;DHT22;20426;48.372;10.888;2023-02-08T02:21:31;-3.50;99.90
34153;DHT22;20426;48.372;10.888;2023-02-08T02:22:15;-3.50;99.90
34153;DHT22;20426;48.372;10.888;2023-02-08T02:27:45;-3.50;99.90
34153;DHT22;20426;48.372;10.888;2023-02-08T02:31:02;-3.50;99.90
34153;DHT22;20426;48.372;10.888;2023-02-08T02:35:02;-3.60;99.90
34153;DHT22;20426;48.372;10.888;2023-02-08T02:36:41;-3.60;99.90
34153;DHT22;20426;48.372;10.888;2023-02-08T02:38:28;-3.70;99.90
34153;DHT22;20426;48.372;10.888;2023-02-08T02:41:21;-3.70;99.90
34153;DHT22;20426;48.372;10.888;2023-02-08T02:42:24;-3.70;99.90
34153;DHT22;20426;48.372;10.888;2023-02-08T02:43:25;-3.70;99.90
34153;DHT22;20426;48.372;10.888;2023-02-08T02:44:24;-3.80;99.90
34153;DHT22;20426;48.372;10.888;2023-02-08T02:45:22;-3.80;99.90
34153;DHT22;20426;48.372;10.888;2023-02-08T02:46:49;-3.80;99.90
34153;DHT22;20426;48.372;10.888;2023-02-08T02:48:27;-3.90;99.90
34153;DHT22;20426;48.372;10.888;2023-02-08T02:49:14;-3.90;99.90
34153;DHT22;20426;48.372;10.888;2023-02-08T02:49:50;-3.90;99.90
34153;DHT22;20426;48.372;10.888;2023-02-08T02:50:44;-3.90;99.90
34153;DHT22;20426;48.372;10.888;2023-02-08T02:52:05;-3.90;99.90
34153;DHT22;20426;48.372;10.888;2023-02-08T02:53:30;-3.90;99.90
34153;DHT22;20426;48.372;10.888;2023-02-08T02:54:07;-3.90;99.90
34153;DHT22;20426;48.372;10.888;2023-02-08T02:54:50;-3.90;99.90
34153;DHT22;20426;48.372;10.888;2023-02-08T02:55:24;-3.90;99.90
34153;DHT22;20426;48.372;10.888;2023-02-08T02:56:05;-3.90;99.90
34153;DHT22;20426;48.372;10.888;2023-02-08T02:56:41;-4.00;99.90
34153;DHT22;20426;48.372;10.888;2023-02-08T02:57:21;-4.00;99.90
34153;DHT22;20426;48.372;10.888;2023-02-08T02:57:55;-4.00;99.90
34153;DHT22;20426;48.372;10.888;2023-02-08T02:58:30;-4.00;99.90
34153;DHT22;20426;48.372;10.888;2023-02-08T02:59:04;-4.00;99.90
34153;DHT22;20426;48.372;10.888;2023-02-08T02:59:37;-4.00;99.90
34153;DHT22;20426;48.372;10.888;2023-02-08T03:00:10;-4.00;99.90
34153;DHT22;20426;48.372;10.888;2023-02-08T03:00:41;-3.90;99.90
34153;DHT22;20426;48.372;10.888;2023-02-08T03:01:12;-3.90;99.90
34153;DHT22;20426;48.372;10.888;2023-02-08T03:01:45;-3.90;99.90
34153;DHT22;20426;48.372;10.888;2023-02-08T03:02:16;-3.90;99.90
34153;DHT22;20426;48.372;10.888;2023-02-08T03:02:47;-3.90;99.90
34153;DHT22;20426;48.372;10.888;2023-02-08T03:03:22;-4.00;99.90
34153;DHT22;20426;48.372;10.888;2023-02-08T03:03:53;-4.00;99.90
34153;DHT22;20426;48.372;10.888;2023-02-08T03:05:05;-4.00;99.90
34153;DHT22;20426;48.372;10.888;2023-02-08T03:05:37;-4.00;99.90
34153;DHT22;20426;48.372;10.888;2023-02-08T03:06:14;-4.00;99.90
34153;DHT22;20426;48.372;10.888;2023-02-08T03:08:22;-4.00;99.90
34153;DHT22;20426;48.372;10.888;2023-02-08T03:09:09;-3.90;99.90
34153;DHT22;20426;48.372;10.888;2023-02-08T03:11:26;-3.90;99.90
34153;DHT22;20426;48.372;10.888;2023-02-08T03:16:16;-4.10;99.90
34153;DHT22;20426;48.372;10.888;2023-02-08T03:16:59;-4.10;99.90
34153;DHT22;20426;48.372;10.888;2023-02-08T03:19:26;-4.10;99.90
34153;DHT22;20426;48.372;10.888;2023-02-08T03:20:09;-4.20;99.90
34153;DHT22;20426;48.372;10.888;2023-02-08T03:21:36;-4.20;99.90
34153;DHT22;20426;48.372;10.888;2023-02-08T03:22:14;-4.20;99.90
34153;DHT22;20426;48.372;10.888;2023-02-08T03:23:15;-4.10;99.90
34153;DHT22;20426;48.372;10.888;2023-02-08T03:24:07;-4.20;99.90
34153;DHT22;20426;48.372;10.888;2023-02-08T03:25:31;-4.20;99.90
34153;DHT22;20426;48.372;10.888;2023-02-08T03:26:40;-4.20;99.90
34153;DHT22;20426;48.372;10.888;2023-02-08T03:27:39;-4.20;99.90
34153;DHT22;20426;48.372;10.888;2023-02-08T03:28:53;-4.20;99.90
34153;DHT22;20426;48.372;10.888;2023-02-08T03:30:16;-4.20;99.90
34153;DHT22;20426;48.372;10.888;2023-02-08T03:31:04;-4.20;99.90
34153;DHT22;20426;48.372;10.888;2023-02-08T03:31:59;-4.20;99.90
34153;DHT22;20426;48.372;10.888;2023-02-08T03:32:54;-4.20;99.90
34153;DHT22;20426;48.372;10.888;2023-02-08T03:33:36;-4.20;99.90
34153;DHT22;20426;48.372;10.888;2023-02-08T03:34:57;-4.20;99.90
34153;DHT22;20426;48.372;10.888;2023-02-08T03:35:37;-4.20;99.90
34153;DHT22;20426;48.372;10.888;2023-02-08T03:36:33;-4.20;99.90
34153;DHT22;20426;48.372;10.888;2023-02-08T03:37:08;-4.20;99.90
34153;DHT22;20426;48.372;10.888;2023-02-08T03:38:23;-4.20;99.90
34153;DHT22;20426;48.372;10.888;2023-02-08T03:38:55;-4.20;99.90
34153;DHT22;20426;48.372;10.888;2023-02-08T03:39:27;-4.30;99.90
34153;DHT22;20426;48.372;10.888;2023-02-08T03:40:16;-4.20;99.90
34153;DHT22;20426;48.372;10.888;2023-02-08T03:40:51;-4.30;99.90
34153;DHT22;20426;48.372;10.888;2023-02-08T03:41:27;-4.30;99.90
34153;DHT22;20426;48.372;10.888;2023-02-08T03:42:07;-4.30;99.90
34153;DHT22;20426;48.372;10.888;2023-02-08T03:42:39;-4.30;99.90
34153;DHT22;20426;48.372;10.888;2023-02-08T03:43:14;-4.30;99.90
34153;DHT22;20426;48.372;10.888;2023-02-08T03:43:51;-4.30;99.90
34153;DHT22;20426;48.372;10.888;2023-02-08T03:45:41;-4.20;99.90
34153;DHT22;20426;48.372;10.888;2023-02-08T03:46:54;-4.20;99.90
34153;DHT22;20426;48.372;10.888;2023-02-08T03:47:33;-4.20;99.90
34153;DHT22;20426;48.372;10.888;2023-02-08T03:48:07;-4.20;99.90
34153;DHT22;20426;48.372;10.888;2023-02-08T03:48:45;-4.20;99.90
34153;DHT22;20426;48.372;10.888;2023-02-08T03:49:24;-4.20;99.90
34153;DHT22;20426;48.372;10.888;2023-02-08T03:49:59;-4.10;99.90
34153;DHT22;20426;48.372;10.888;2023-02-08T03:50:34;-4.10;99.90
34153;DHT22;20426;48.372;10.888;2023-02-08T03:51:06;-4.10;99.90
34153;DHT22;20426;48.372;10.888;2023-02-08T03:51:38;-4.10;99.90
34153;DHT22;20426;48.372;10.888;2023-02-08T03:52:10;-4.10;99.90
34153;DHT22;20426;48.372;10.888;2023-02-08T03:52:42;-4.10;99.90
34153;DHT22;20426;48.372;10.888;2023-02-08T03:53:16;-4.20;99.90
34153;DHT22;20426;48.372;10.888;2023-02-08T03:53:51;-4.20;99.90
34153;DHT22;20426;48.372;10.888;2023-02-08T03:54:25;-4.20;99.90
34153;DHT22;20426;48.372;10.888;2023-02-08T03:55:34;-4.10;99.90
34153;DHT22;20426;48.372;10.888;2023-02-08T03:56:14;-4.10;99.90
34153;DHT22;20426;48.372;10.888;2023-02-08T03:57:11;-4.10;99.90
34153;DHT22;20426;48.372;10.888;2023-02-08T03:57:58;-4.10;99.90
34153;DHT22;20426;48.372;10.888;2023-02-08T03:58:47;-4.10;99.90
34153;DHT22;20426;48.372;10.888;2023-02-08T03:59:30;-4.10;99.90
34153;DHT22;20426;48.372;10.888;2023-02-08T04:00:07;-4.10;99.90
34153;DHT22;20426;48.372;10.888;2023-02-08T04:00:41;-4.10;99.90
34153;DHT22;20426;48.372;10.888;2023-02-08T04:01:18;-4.10;99.90
34153;DHT22;20426;48.372;10.888;2023-02-08T04:02:00;-4.10;99.90
34153;DHT22;20426;48.372;10.888;2023-02-08T04:02:35;-4.10;99.90
34153;DHT22;20426;48.372;10.888;2023-02-08T04:03:19;-4.10;99.90
34153;DHT22;20426;48.372;10.888;2023-02-08T04:03:52;-4.10;99.90
34153;DHT22;20426;48.372;10.888;2023-02-08T04:04:25;-4.10;99.90
34153;DHT22;20426;48.372;10.888;2023-02-08T04:04:57;-4.10;99.90
34153;DHT22;20426;48.372;10.888;2023-02-08T04:05:30;-4.10;99.90
34153;DHT22;20426;48.372;10.888;2023-02-08T04:06:00;-4.20;99.90
34153;DHT22;20426;48.372;10.888;2023-02-08T04:06:31;-4.10;99.90
34153;DHT22;20426;48.372;10.888;2023-02-08T04:07:02;-4.10;99.90
34153;DHT22;20426;48.372;10.888;2023-02-08T04:07:33;-4.10;99.90
34153;DHT22;20426;48.372;10.888;2023-02-08T04:08:04;-4.10;99.90
34153;DHT22;20426;48.372;10.888;2023-02-08T04:08:35;-4.10;99.90
34153;DHT22;20426;48.372;10.888;2023-02-08T04:09:06;-4.10;99.90
34153;DHT22;20426;48.372;10.888;2023-02-08T04:09:36;-4.10;99.90
34153;DHT22;20426;48.372;10.888;2023-02-08T04:10:07;-4.10;99.90
34153;DHT22;20426;48.372;10.888;2023-02-08T04:10:38;-4.10;99.90